Time;durP1;ratioP1;P1;durP2;ratioP2;P2;SDS_P1;SDS_P2;PMS_P1;PMS_P2;Temp;Humidity;BMP_temperature;BMP_pressure;BME280_temperature;BME280_humidity;BME280_pressure;Samples;Min_cycle;Max_cycle;Signal;HPM_P1;HPM_P2
2022/09/06 00:00:36;;;;;;;0.10;0.10;;;;;;;21.47;100.00;99524.41;7390193;19;20011;-82
2022/09/06 00:03:02;;;;;;;1.02;0.47;;;;;;;21.68;100.00;99516.56;7391384;19;20046;-82
2022/09/06 00:05:30;;;;;;;0.10;0.10;;;;;;;21.79;100.00;99516.22;7391746;19;20085;-83
2022/09/06 00:08:04;;;;;;;0.10;0.10;;;;;;;21.68;100.00;99510.88;7388769;19;20483;-83
2022/09/06 00:10:30;;;;;;;0.10;0.10;;;;;;;21.75;100.00;99515.81;7390581;19;20517;-83
2022/09/06 00:13:05;;;;;;;0.10;0.08;;;;;;;22.08;100.00;99509.16;7391000;19;20018;-83
2022/09/06 00:15:32;;;;;;;0.10;0.10;;;;;;;22.24;100.00;99513.53;7391354;19;20014;-83
2022/09/06 00:18:00;;;;;;;1.10;0.80;;;;;;;22.28;100.00;99511.09;7390024;19;20491;-83
2022/09/06 00:20:28;;;;;;;0.10;0.10;;;;;;;22.34;100.00;99513.75;7394584;19;20047;-82
2022/09/06 00:23:02;;;;;;;8.15;0.40;;;;;;;22.23;100.00;99516.94;7390981;19;20018;-84
2022/09/06 00:25:29;;;;;;;0.10;0.00;;;;;;;22.34;100.00;99517.34;7391518;19;20018;-83
2022/09/06 00:27:56;;;;;;;0.35;0.32;;;;;;;22.41;100.00;99518.69;7390206;19;20042;-84
2022/09/06 00:30:23;;;;;;;0.10;0.00;;;;;;;22.27;100.00;99503.13;7392484;19;20011;-84
2022/09/06 00:32:49;;;;;;;0.68;0.30;;;;;;;22.52;100.00;99502.03;7391138;19;20014;-83
2022/09/06 00:35:17;;;;;;;0.10;0.00;;;;;;;22.49;100.00;99508.09;7389366;19;20020;-81
2022/09/06 00:37:43;;;;;;;0.10;0.00;;;;;;;22.29;100.00;99494.81;7389602;19;20032;-84
2022/09/06 00:40:10;;;;;;;0.30;0.00;;;;;;;22.10;100.00;99495.19;7391615;19;20018;-82
2022/09/06 00:42:36;;;;;;;0.10;0.10;;;;;;;19.25;100.00;99506.38;7390366;19;20035;-83
2022/09/06 00:45:04;;;;;;;0.35;0.10;;;;;;;18.66;100.00;99496.47;7391033;19;20031;-83
2022/09/06 00:47:32;;;;;;;0.10;0.00;;;;;;;20.54;100.00;99486.75;7395911;19;20015;-84
2022/09/06 00:49:59;;;;;;;0.10;0.00;;;;;;;21.61;100.00;99478.34;7390641;19;20037;-82
2022/09/06 00:52:26;;;;;;;0.10;0.00;;;;;;;21.74;100.00;99485.97;7390225;19;20044;-82
2022/09/06 00:54:53;;;;;;;0.10;0.10;;;;;;;21.83;100.00;99486.22;7390898;19;20010;-85
2022/09/06 00:57:20;;;;;;;0.10;0.10;;;;;;;19.60;100.00;99492.56;7391369;19;20109;-82
2022/09/06 00:59:47;;;;;;;0.45;0.32;;;;;;;18.60;100.00;99487.34;7387047;19;20033;-82
2022/09/06 01:02:13;;;;;;;0.20;0.20;;;;;;;18.23;100.00;99488.22;7388195;19;20022;-82
2022/09/06 01:04:43;;;;;;;0.25;0.20;;;;;;;18.45;100.00;99487.09;7388314;19;20078;-83
2022/09/06 01:07:40;;;;;;;0.10;0.00;;;;;;;18.47;100.00;99488.09;7390090;19;20037;-82
2022/09/06 01:10:21;;;;;;;0.10;0.00;;;;;;;18.47;100.00;99490.16;7386630;19;20018;-82
2022/09/06 01:13:03;;;;;;;0.20;0.20;;;;;;;18.32;100.00;99484.22;7385746;19;20373;-82
2022/09/06 01:16:08;;;;;;;0.10;0.10;;;;;;;18.16;100.00;99486.78;7388252;19;20549;-82
2022/09/06 01:19:10;;;;;;;0.17;0.10;;;;;;;18.06;100.00;99491.28;7386796;19;20625;-82
2022/09/06 01:22:08;;;;;;;0.10;0.10;;;;;;;18.14;100.00;99497.06;7386284;19;20014;-83
2022/09/06 01:24:56;;;;;;;0.10;0.10;;;;;;;18.14;100.00;99492.19;7388579;19;20078;-83
2022/09/06 01:27:43;;;;;;;0.30;0.20;;;;;;;18.11;100.00;99490.44;7389651;19;20019;-83
2022/09/06 01:30:11;;;;;;;0.10;0.10;;;;;;;18.70;100.00;99482.81;7395841;19;20032;-82
2022/09/06 01:32:50;;;;;;;0.10;0.10;;;;;;;20.86;100.00;99475.88;7397539;19;20022;-82
2022/09/06 01:35:37;;;;;;;0.10;0.10;;;;;;;22.00;100.00;99471.53;7395261;19;20014;-82
2022/09/06 01:38:04;;;;;;;0.10;0.10;;;;;;;22.52;100.00;99476.47;7393323;19;20018;-82
2022/09/06 01:40:35;;;;;;;0.22;0.22;;;;;;;22.51;100.00;99471.38;7396721;19;20014;-82
2022/09/06 01:43:08;;;;;;;0.10;0.10;;;;;;;22.68;100.00;99465.91;7397038;19;20015;-83
2022/09/06 01:45:57;;;;;;;0.10;0.00;;;;;;;22.74;100.00;99465.72;7395813;19;20074;-83
2022/09/06 01:48:34;;;;;;;1.35;0.20;;;;;;;22.61;100.00;99461.00;7395913;19;20018;-85
2022/09/06 01:51:08;;;;;;;0.10;0.00;;;;;;;19.67;100.00;99469.28;7397653;19;20036;-82
2022/09/06 01:53:56;;;;;;;0.88;0.17;;;;;;;18.91;100.00;99478.03;7399537;19;20010;-83
2022/09/06 01:56:31;;;;;;;0.10;0.10;;;;;;;18.69;100.00;99472.84;7395619;19;20090;-83
2022/09/06 01:59:29;;;;;;;0.10;0.10;;;;;;;18.57;100.00;99460.97;7394475;19;20318;-83
2022/09/06 02:02:31;;;;;;;0.10;0.00;;;;;;;18.42;100.00;99457.13;7395087;19;20361;-83
2022/09/06 02:05:10;;;;;;;;;;;;;;;18.31;100.00;99466.53;7395209;19;20036;-82
2022/09/06 02:07:38;;;;;;;0.10;0.10;;;;;;;18.14;100.00;99464.00;7394561;19;19917;-83
2022/09/06 02:10:04;;;;;;;0.10;0.00;;;;;;;18.12;100.00;99460.19;7396088;19;20014;-83
2022/09/06 02:12:32;;;;;;;0.10;0.10;;;;;;;18.24;100.00;99475.63;7396739;19;20018;-83
2022/09/06 02:15:07;;;;;;;0.17;0.17;;;;;;;18.29;100.00;99476.81;7394836;19;20019;-82
2022/09/06 02:17:39;;;;;;;0.10;0.10;;;;;;;18.37;100.00;99477.72;7396595;19;20026;-83
2022/09/06 02:20:16;;;;;;;2.13;0.17;;;;;;;18.44;100.00;99469.41;7395587;19;20019;-83
2022/09/06 02:22:45;;;;;;;0.10;0.00;;;;;;;18.21;100.00;99473.13;7395351;19;20349;-83
2022/09/06 02:25:21;;;;;;;0.10;0.10;;;;;;;18.19;100.00;99477.22;7395143;19;20014;-84
2022/09/06 02:27:47;;;;;;;0.75;0.30;;;;;;;18.32;100.00;99470.88;7393955;19;20018;-83
2022/09/06 02:30:14;;;;;;;1.13;0.35;;;;;;;18.31;100.00;99465.78;7395219;19;20018;-83
2022/09/06 02:32:50;;;;;;;0.10;0.08;;;;;;;18.44;100.00;99462.97;7395438;19;20017;-83
2022/09/06 02:35:17;;;;;;;0.10;0.10;;;;;;;18.52;100.00;99469.53;7390029;19;20045;-83
2022/09/06 02:37:43;;;;;;;0.10;0.10;;;;;;;18.57;100.00;99455.34;7389893;19;20019;-83
2022/09/06 02:40:10;;;;;;;0.10;0.00;;;;;;;18.56;100.00;99470.00;7393993;19;20028;-83
2022/09/06 02:42:37;;;;;;;0.10;0.10;;;;;;;18.57;100.00;99465.84;7395693;19;20014;-83
2022/09/06 02:45:04;;;;;;;0.17;0.03;;;;;;;18.54;100.00;99464.09;7395722;19;20025;-83
2022/09/06 02:47:30;;;;;;;0.10;0.10;;;;;;;18.45;100.00;99475.81;7398358;19;20014;-83
2022/09/06 02:49:56;;;;;;;0.10;0.00;;;;;;;18.43;100.00;99467.84;7395131;19;20014;-83
2022/09/06 02:52:22;;;;;;;0.13;0.13;;;;;;;18.41;100.00;99470.47;7393413;19;20018;-83
2022/09/06 02:54:49;;;;;;;0.52;0.40;;;;;;;18.25;100.00;99474.34;7392364;19;20032;-83
2022/09/06 02:57:15;;;;;;;0.10;0.00;;;;;;;18.30;100.00;99475.53;7396913;19;20074;-84
2022/09/06 02:59:41;;;;;;;1.38;0.30;;;;;;;18.31;100.00;99479.88;7393199;19;20010;-82
2022/09/06 03:02:07;;;;;;;0.10;0.10;;;;;;;18.16;100.00;99483.97;7394266;19;20047;-83
2022/09/06 03:04:33;;;;;;;0.10;0.10;;;;;;;18.35;100.00;99475.44;7393562;19;20023;-83
2022/09/06 03:06:59;;;;;;;0.10;0.00;;;;;;;18.38;100.00;99474.38;7397286;19;20022;-83
2022/09/06 03:09:25;;;;;;;0.25;0.10;;;;;;;18.44;100.00;99479.91;7394221;19;20022;-83
2022/09/06 03:11:51;;;;;;;0.17;0.10;;;;;;;18.32;100.00;99475.75;7393843;19;20015;-82
2022/09/06 03:14:18;;;;;;;0.77;0.10;;;;;;;18.36;100.00;99467.75;7394321;19;20015;-82
2022/09/06 03:16:44;;;;;;;6.70;0.52;;;;;;;18.38;100.00;99470.78;7395402;19;20719;-83
2022/09/06 03:19:11;;;;;;;1.45;0.10;;;;;;;18.33;100.00;99474.44;7394186;19;20457;-86
2022/09/06 03:21:37;;;;;;;0.10;0.10;;;;;;;18.33;100.00;99480.84;7392758;19;20602;-83
2022/09/06 03:24:03;;;;;;;0.10;0.10;;;;;;;18.30;100.00;99475.53;7391741;19;20050;-81
2022/09/06 03:26:29;;;;;;;0.30;0.10;;;;;;;18.09;100.00;99476.13;7390274;19;20366;-80
2022/09/06 03:28:55;;;;;;;0.68;0.10;;;;;;;17.85;100.00;99481.88;7388561;19;20011;-80
2022/09/06 03:31:21;;;;;;;0.65;0.10;;;;;;;17.98;100.00;99481.16;7389161;19;20051;-81
2022/09/06 03:33:47;;;;;;;0.10;0.10;;;;;;;17.65;100.00;99478.84;7390308;19;20022;-81
2022/09/06 03:36:14;;;;;;;2.35;0.47;;;;;;;17.63;100.00;99481.44;7390266;19;20465;-82
2022/09/06 03:38:40;;;;;;;0.85;0.10;;;;;;;17.47;100.00;99477.53;7387950;19;20010;-81
2022/09/06 03:41:06;;;;;;;0.43;0.25;;;;;;;17.46;100.00;99473.19;7389057;19;20102;-81
2022/09/06 03:43:33;;;;;;;1.17;0.10;;;;;;;17.92;100.00;99470.00;7390311;19;20370;-83
2022/09/06 03:45:59;;;;;;;0.28;0.20;;;;;;;18.03;100.00;99469.81;7392563;19;20078;-83
2022/09/06 03:48:27;;;;;;;0.68;0.40;;;;;;;17.95;100.00;99457.63;7392237;19;20090;-83
2022/09/06 03:50:55;;;;;;;0.22;0.22;;;;;;;17.76;100.00;99467.44;7391422;19;20037;-82
2022/09/06 03:53:23;;;;;;;0.20;0.10;;;;;;;17.70;100.00;99466.72;7392385;19;20014;-83
2022/09/06 03:55:52;;;;;;;0.25;0.10;;;;;;;17.62;100.00;99463.00;7392369;19;20048;-82
2022/09/06 03:58:21;;;;;;;0.32;0.15;;;;;;;17.96;100.00;99456.34;7390144;19;20033;-83
2022/09/06 04:00:48;;;;;;;0.70;0.20;;;;;;;18.08;100.00;99454.13;7392088;19;20014;-83
2022/09/06 04:03:14;;;;;;;2.03;0.32;;;;;;;17.95;100.00;99452.00;7391835;19;20335;-82
2022/09/06 04:05:45;;;;;;;1.55;0.25;;;;;;;18.00;100.00;99450.38;7391514;19;20025;-83
2022/09/06 04:08:11;;;;;;;0.95;0.17;;;;;;;17.96;100.00;99447.91;7390251;19;20101;-82
2022/09/06 04:10:37;;;;;;;1.27;0.57;;;;;;;17.82;100.00;99446.31;7391944;19;20014;-82
2022/09/06 04:13:03;;;;;;;0.10;0.10;;;;;;;17.78;100.00;99443.03;7390871;19;20078;-83
2022/09/06 04:15:29;;;;;;;0.35;0.20;;;;;;;17.78;100.00;99440.22;7390385;19;20015;-83
2022/09/06 04:17:56;;;;;;;0.30;0.13;;;;;;;17.79;100.00;99441.00;7391235;19;20035;-83
2022/09/06 04:20:22;;;;;;;0.10;0.10;;;;;;;17.68;100.00;99438.34;7389802;19;20460;-82
2022/09/06 04:22:48;;;;;;;1.95;0.30;;;;;;;17.54;100.00;99440.34;7389449;19;20014;-83
2022/09/06 04:25:14;;;;;;;1.13;0.20;;;;;;;17.43;100.00;99438.41;7389638;19;20022;-82
2022/09/06 04:27:40;;;;;;;1.98;0.70;;;;;;;17.54;100.00;99436.78;7386734;19;20367;-82
2022/09/06 04:30:07;;;;;;;1.63;0.40;;;;;;;17.58;100.00;99437.97;7389939;19;20015;-82
2022/09/06 04:32:33;;;;;;;1.88;0.32;;;;;;;17.25;100.00;99442.00;7390235;19;20010;-83
2022/09/06 04:34:59;;;;;;;0.22;0.20;;;;;;;17.27;100.00;99445.03;7390779;19;20094;-83
2022/09/06 04:37:25;;;;;;;1.30;0.35;;;;;;;17.07;100.00;99444.75;7394721;19;20018;-83
2022/09/06 04:39:51;;;;;;;0.30;0.20;;;;;;;17.11;100.00;99445.22;7391358;19;20014;-84
2022/09/06 04:42:17;;;;;;;0.30;0.22;;;;;;;17.07;100.00;99437.09;7392572;19;20468;-83
2022/09/06 04:44:44;;;;;;;1.00;0.35;;;;;;;17.37;100.00;99436.94;7390090;19;20018;-82
2022/09/06 04:47:13;;;;;;;0.90;0.40;;;;;;;17.45;100.00;99440.69;7395305;19;20052;-83
2022/09/06 04:49:40;;;;;;;2.03;0.22;;;;;;;17.33;100.00;99428.06;7391373;19;20014;-82
2022/09/06 04:52:07;;;;;;;0.55;0.50;;;;;;;17.40;100.00;99419.00;7390183;19;20023;-83
2022/09/06 04:54:33;;;;;;;0.73;0.20;;;;;;;17.41;100.00;99426.16;7390186;19;20468;-83
2022/09/06 04:56:59;;;;;;;1.30;0.50;;;;;;;17.33;100.00;99419.59;7391259;19;20480;-82
2022/09/06 04:59:25;;;;;;;0.55;0.28;;;;;;;17.29;100.00;99419.94;7388476;19;20018;-83
2022/09/06 05:01:52;;;;;;;1.48;0.55;;;;;;;17.19;100.00;99420.84;7385917;19;20390;-82
2022/09/06 05:04:18;;;;;;;1.23;0.20;;;;;;;17.08;100.00;99418.94;7393498;19;20121;-83
2022/09/06 05:06:44;;;;;;;0.95;0.55;;;;;;;17.33;100.00;99428.81;7398588;19;20048;-83
2022/09/06 05:09:10;;;;;;;28.33;1.27;;;;;;;17.58;100.00;99423.91;7401670;19;20599;-82
2022/09/06 05:11:36;;;;;;;2.30;0.73;;;;;;;17.45;100.00;99412.53;7398252;19;20408;-83
2022/09/06 05:14:02;;;;;;;1.42;0.90;;;;;;;17.44;100.00;99413.81;7400536;19;20035;-82
2022/09/06 05:16:29;;;;;;;2.75;0.60;;;;;;;17.52;100.00;99416.84;7401345;19;20404;-84
2022/09/06 05:18:55;;;;;;;2.72;0.47;;;;;;;17.55;100.00;99412.94;7399724;19;20014;-82
2022/09/06 05:21:22;;;;;;;1.48;0.45;;;;;;;17.59;100.00;99424.66;7394159;19;20015;-80
2022/09/06 05:23:48;;;;;;;6.50;1.08;;;;;;;17.18;100.00;99413.66;7389073;19;20048;-80
2022/09/06 05:26:14;;;;;;;9.43;1.35;;;;;;;17.08;100.00;99416.13;7392709;19;20018;-79
2022/09/06 05:28:40;;;;;;;3.40;1.02;;;;;;;17.14;100.00;99424.47;7389635;19;20022;-80
2022/09/06 05:31:27;;;;;;;1.13;0.40;;;;;;;17.19;100.00;99415.22;7392861;19;20018;-80
2022/09/06 05:33:54;;;;;;;1.52;0.88;;;;;;;17.30;100.00;99417.88;7392453;19;20022;-80
2022/09/06 05:36:22;;;;;;;2.80;0.85;;;;;;;17.38;100.00;99424.41;7391944;19;20022;-81
2022/09/06 05:38:52;;;;;;;4.57;1.02;;;;;;;17.29;100.00;99419.16;7389799;19;20046;-83
2022/09/06 05:41:20;;;;;;;1.02;0.22;;;;;;;17.38;100.00;99416.72;7392258;19;20014;-84
2022/09/06 05:43:46;;;;;;;4.95;0.85;;;;;;;17.56;100.00;99415.22;7395593;19;20018;-83
2022/09/06 05:46:13;;;;;;;3.33;1.08;;;;;;;17.49;100.00;99410.19;7392657;19;20026;-83
2022/09/06 05:48:39;;;;;;;1.35;0.47;;;;;;;17.53;100.00;99410.66;7396044;19;20023;-83
2022/09/06 05:51:12;;;;;;;16.40;1.05;;;;;;;17.40;100.00;99407.75;7398398;19;20010;-83
2022/09/06 05:53:41;;;;;;;3.20;1.25;;;;;;;17.49;100.00;99412.22;7398852;19;20011;-84
2022/09/06 05:56:08;;;;;;;3.58;1.08;;;;;;;17.53;100.00;99410.66;7397684;19;20086;-83
2022/09/06 05:58:34;;;;;;;2.65;0.52;;;;;;;17.52;100.00;99411.94;7391940;19;20483;-83
2022/09/06 06:01:21;;;;;;;2.20;0.65;;;;;;;17.66;100.00;99413.53;7395166;19;20083;-83
2022/09/06 06:03:59;;;;;;;4.13;1.25;;;;;;;17.61;100.00;99405.16;7396467;19;20014;-83
2022/09/06 06:06:27;;;;;;;2.97;1.48;;;;;;;17.70;100.00;99402.72;7396134;19;20015;-82
2022/09/06 06:08:53;;;;;;;0.90;0.30;;;;;;;17.75;100.00;99393.44;7395253;19;20022;-83
2022/09/06 06:11:19;;;;;;;2.00;1.00;;;;;;;17.81;100.00;99402.53;7397640;19;20074;-83
2022/09/06 06:13:46;;;;;;;4.18;1.33;;;;;;;17.96;100.00;99402.81;7395241;19;20025;-83
2022/09/06 06:16:14;;;;;;;1.00;0.50;;;;;;;18.01;100.00;99395.56;7393852;19;20065;-83
2022/09/06 06:18:41;;;;;;;4.32;1.70;;;;;;;18.06;100.00;99400.34;7397843;19;20480;-83
2022/09/06 06:21:08;;;;;;;5.93;1.83;;;;;;;17.93;100.00;99398.25;7394593;19;20041;-83
2022/09/06 06:23:34;;;;;;;1.50;1.00;;;;;;;18.11;100.00;99413.56;7398492;19;20002;-83
2022/09/06 06:26:00;;;;;;;2.25;0.80;;;;;;;17.92;100.00;99402.38;7399160;19;20026;-83
2022/09/06 06:28:26;;;;;;;4.50;1.02;;;;;;;17.74;100.00;99399.56;7397729;19;20046;-84
2022/09/06 06:30:53;;;;;;;2.35;1.58;;;;;;;17.93;100.00;99401.06;7396693;19;20078;-83
2022/09/06 06:33:19;;;;;;;8.50;1.88;;;;;;;18.11;100.00;99397.44;7394417;19;20333;-84
2022/09/06 06:36:03;;;;;;;8.85;1.13;;;;;;;18.08;100.00;99398.50;7395713;19;20006;-83
2022/09/06 06:38:31;;;;;;;4.97;1.00;;;;;;;18.07;100.00;99413.91;7391554;19;20029;-82
2022/09/06 06:40:58;;;;;;;6.20;1.05;;;;;;;18.02;100.00;99402.72;7392653;19;20018;-83
2022/09/06 06:43:25;;;;;;;8.02;2.85;;;;;;;17.99;100.00;99401.75;7392277;19;20018;-82
2022/09/06 06:45:52;;;;;;;4.78;1.25;;;;;;;18.02;100.00;99395.03;7392946;19;20476;-83
2022/09/06 06:48:18;;;;;;;3.35;1.40;;;;;;;18.03;100.00;99402.19;7392204;19;20022;-80
2022/09/06 06:50:44;;;;;;;6.15;0.90;;;;;;;18.05;100.00;99388.31;7391174;19;20010;-84
2022/09/06 06:53:10;;;;;;;5.25;0.90;;;;;;;18.47;100.00;99385.81;7393445;19;20014;-82
2022/09/06 06:55:37;;;;;;;3.97;0.65;;;;;;;18.38;100.00;99383.38;7389646;19;20102;-81
2022/09/06 06:58:03;;;;;;;1.92;1.13;;;;;;;18.28;100.00;99385.84;7388111;19;20013;-84
2022/09/06 07:00:30;;;;;;;1.30;0.65;;;;;;;18.30;100.00;99374.78;7396157;19;20358;-83
2022/09/06 07:02:56;;;;;;;1.70;0.68;;;;;;;18.36;100.00;99383.16;7395397;19;20019;-83
2022/09/06 07:05:23;;;;;;;5.25;0.88;;;;;;;18.38;100.00;99380.56;7396144;19;20014;-84
2022/09/06 07:07:49;;;;;;;2.42;1.20;;;;;;;18.36;100.00;99395.22;7392450;19;20010;-84
2022/09/06 07:10:15;;;;;;;5.57;1.60;;;;;;;18.38;100.00;99380.56;7391633;19;20094;-82
2022/09/06 07:12:41;;;;;;;6.68;1.08;;;;;;;18.35;100.00;99387.28;7389016;19;20045;-82
2022/09/06 07:15:08;;;;;;;7.82;1.95;;;;;;;18.25;100.00;99389.00;7388781;19;20026;-82
2022/09/06 07:17:34;;;;;;;10.73;1.35;;;;;;;18.21;100.00;99389.34;7390322;19;20775;-82
2022/09/06 07:20:01;;;;;;;3.25;1.05;;;;;;;18.17;100.00;99372.72;7392011;19;20489;-81
2022/09/06 07:22:27;;;;;;;6.97;1.45;;;;;;;18.11;100.00;99391.78;7389664;19;20014;-79
2022/09/06 07:24:53;;;;;;;3.20;0.90;;;;;;;18.17;100.00;99389.63;7387358;19;20014;-81
2022/09/06 07:27:19;;;;;;;4.10;1.00;;;;;;;18.16;100.00;99385.31;7390274;19;20038;-81
2022/09/06 07:29:45;;;;;;;7.82;1.48;;;;;;;18.14;100.00;99390.72;7387104;19;20038;-82
2022/09/06 07:32:11;;;;;;;2.35;0.68;;;;;;;18.15;100.00;99391.47;7388731;19;20024;-81
2022/09/06 07:34:38;;;;;;;2.88;0.52;;;;;;;17.96;100.00;99388.72;7389532;19;20379;-82
2022/09/06 07:37:04;;;;;;;7.47;1.50;;;;;;;17.88;100.00;99393.47;7389327;19;20023;-82
2022/09/06 07:39:31;;;;;;;3.80;1.65;;;;;;;17.93;100.00;99392.59;7385987;19;20014;-82
2022/09/06 07:41:58;;;;;;;3.78;0.88;;;;;;;17.95;100.00;99390.00;7390701;19;20483;-81
2022/09/06 07:44:24;;;;;;;3.08;1.48;;;;;;;18.20;100.00;99382.16;7389542;19;20023;-81
2022/09/06 07:46:51;;;;;;;1.60;0.40;;;;;;;18.30;100.00;99382.50;7390381;19;20015;-81
2022/09/06 07:49:17;;;;;;;3.75;0.98;;;;;;;18.28;100.00;99387.94;7391574;19;20026;-80
2022/09/06 07:51:43;;;;;;;1.77;0.30;;;;;;;18.27;100.00;99392.03;7385836;19;20368;-81
2022/09/06 07:54:10;;;;;;;4.82;1.58;;;;;;;18.39;100.00;99379.25;7388490;19;20018;-81
2022/09/06 07:56:36;;;;;;;4.22;1.40;;;;;;;18.40;100.00;99383.59;7390919;19;20026;-81
2022/09/06 07:59:02;;;;;;;8.13;1.85;;;;;;;18.35;100.00;99381.63;7383488;19;20049;-81
2022/09/06 08:01:30;;;;;;;4.00;0.88;;;;;;;18.37;100.00;99382.63;7384941;19;20018;-81
2022/09/06 08:03:59;;;;;;;3.92;1.63;;;;;;;18.29;100.00;99395.06;7389704;19;20018;-81
2022/09/06 08:06:27;;;;;;;1.52;0.98;;;;;;;18.12;100.00;99392.56;7386713;19;20010;-80
2022/09/06 08:08:54;;;;;;;3.83;0.85;;;;;;;18.01;100.00;99387.88;7384774;19;20381;-81
2022/09/06 08:11:22;;;;;;;3.33;0.98;;;;;;;18.26;100.00;99382.81;7387275;19;20035;-82
2022/09/06 08:13:50;;;;;;;7.28;1.23;;;;;;;18.24;100.00;99382.59;7386761;19;20472;-80
2022/09/06 08:16:16;;;;;;;5.03;1.10;;;;;;;18.34;100.00;99377.31;7384057;19;20018;-81
2022/09/06 08:18:42;;;;;;;3.30;1.08;;;;;;;18.41;100.00;99380.22;7389410;19;20018;-81
2022/09/06 08:21:14;;;;;;;4.40;0.85;;;;;;;18.33;100.00;99396.28;7385883;19;20413;-85
2022/09/06 08:23:47;;;;;;;1.73;1.13;;;;;;;18.24;100.00;99393.09;7388067;19;20039;-81
2022/09/06 08:26:15;;;;;;;5.43;1.15;;;;;;;18.12;100.00;99393.31;7384187;19;20074;-81
2022/09/06 08:28:41;;;;;;;6.30;1.25;;;;;;;18.05;100.00;99393.94;7385593;19;20022;-81
2022/09/06 08:31:11;;;;;;;6.13;0.90;;;;;;;17.99;100.00;99396.13;7386019;19;20373;-84
2022/09/06 08:33:38;;;;;;;1.50;0.88;;;;;;;17.97;100.00;99393.06;7385581;19;20735;-82
2022/09/06 08:36:05;;;;;;;3.50;1.48;;;;;;;17.99;100.00;99384.06;7387445;19;20376;-81
2022/09/06 08:38:32;;;;;;;4.22;1.27;;;;;;;17.98;100.00;99393.81;7384693;19;20021;-83
2022/09/06 08:41:28;;;;;;;6.55;1.92;;;;;;;18.06;100.00;99389.09;7391159;19;20435;-84
2022/09/06 08:44:09;;;;;;;2.40;1.20;;;;;;;18.19;100.00;99387.03;7387498;19;20051;-83
2022/09/06 08:46:44;;;;;;;4.03;1.20;;;;;;;18.10;100.00;99395.91;7387267;19;20015;-79
2022/09/06 08:49:11;;;;;;;1.23;0.47;;;;;;;18.08;100.00;99375.94;7386897;19;20028;-81
2022/09/06 08:51:52;;;;;;;1.85;0.57;;;;;;;18.26;100.00;99379.25;7384951;19;20029;-80
2022/09/06 08:54:48;;;;;;;1.58;0.85;;;;;;;18.45;100.00;99375.06;7385948;19;20054;-78
2022/09/06 08:57:34;;;;;;;0.73;0.63;;;;;;;18.59;100.00;99378.66;7383200;19;20023;-79
2022/09/06 09:00:06;;;;;;;5.68;1.60;;;;;;;18.67;100.00;99373.88;7386612;19;20795;-79
2022/09/06 09:02:40;;;;;;;2.50;1.08;;;;;;;18.59;100.00;99378.66;7384533;19;20374;-80
2022/09/06 09:05:32;;;;;;;2.22;0.45;;;;;;;18.50;100.00;99377.00;7385797;19;20123;-79
2022/09/06 09:08:04;;;;;;;5.55;0.98;;;;;;;18.48;100.00;99373.22;7381291;19;20021;-79
2022/09/06 09:10:39;;;;;;;1.02;0.52;;;;;;;18.53;100.00;99369.53;7385290;19;20033;-81
2022/09/06 09:13:07;;;;;;;2.38;1.08;;;;;;;18.66;100.00;99372.34;7383661;19;20359;-79
2022/09/06 09:15:35;;;;;;;3.80;1.08;;;;;;;18.64;100.00;99366.50;7381399;19;20048;-80
2022/09/06 09:18:02;;;;;;;1.38;0.52;;;;;;;18.53;100.00;99375.94;7390534;19;20353;-82
2022/09/06 09:20:28;;;;;;;2.60;0.75;;;;;;;18.65;100.00;99382.88;7384539;19;20098;-81
2022/09/06 09:22:55;;;;;;;0.93;0.10;;;;;;;18.65;100.00;99384.94;7383805;19;20516;-79
2022/09/06 09:25:22;;;;;;;2.15;0.65;;;;;;;18.64;100.00;99366.50;7388574;19;20015;-82
2022/09/06 09:27:56;;;;;;;3.92;0.95;;;;;;;18.70;100.00;99355.84;7383874;19;20489;-81
2022/09/06 09:30:25;;;;;;;2.53;0.95;;;;;;;18.77;100.00;99360.84;7389700;19;20022;-90
2022/09/06 09:32:51;;;;;;;8.40;1.17;;;;;;;18.97;100.00;99363.00;7394370;19;20014;-89
2022/09/06 09:35:39;;;;;;;3.15;0.70;;;;;;;19.15;100.00;99362.06;7406126;19;20037;-87
2022/09/06 09:38:08;;;;;;;5.10;1.15;;;;;;;19.21;100.00;99365.53;7390354;19;20014;-85
2022/09/06 09:40:53;;;;;;;1.77;0.77;;;;;;;19.17;100.00;99365.13;7392021;19;20599;-85
2022/09/06 09:43:22;;;;;;;3.97;1.35;;;;;;;19.22;100.00;99364.25;7391262;19;20022;-82
2022/09/06 09:46:14;;;;;;;3.30;1.08;;;;;;;19.35;100.00;99363.47;7389595;19;20110;-80
2022/09/06 09:48:59;;;;;;;2.45;0.70;;;;;;;19.23;100.00;99362.91;7384366;19;20081;-76
2022/09/06 09:51:26;;;;;;;1.65;0.75;;;;;;;19.15;100.00;99355.66;7393528;19;20436;-80
2022/09/06 09:54:29;;;;;;;2.65;0.82;;;;;;;19.29;100.00;99366.41;7394282;19;20014;-82
2022/09/06 09:56:56;;;;;;;3.00;0.60;;;;;;;19.32;100.00;99367.34;7391363;19;20014;-77
2022/09/06 09:59:22;;;;;;;3.13;0.82;;;;;;;19.34;100.00;99364.75;7390598;19;20477;-78
2022/09/06 10:01:50;;;;;;;4.93;0.70;;;;;;;19.50;100.00;99347.44;7390090;19;20007;-78
2022/09/06 10:04:22;;;;;;;2.35;1.27;;;;;;;19.80;100.00;99346.19;7388910;19;20023;-79
2022/09/06 10:06:48;;;;;;;4.03;1.02;;;;;;;19.98;100.00;99345.25;7392431;19;20022;-79
2022/09/06 10:09:20;;;;;;;2.08;0.82;;;;;;;20.11;100.00;99353.63;7392676;19;20010;-79
2022/09/06 10:11:53;;;;;;;1.77;0.60;;;;;;;20.18;100.00;99362.16;7395008;19;20018;-79
2022/09/06 10:14:29;;;;;;;2.05;0.57;;;;;;;20.37;100.00;99356.31;7390150;19;20025;-77
2022/09/06 10:16:57;;;;;;;1.38;0.50;;;;;;;20.52;100.00;99364.91;7390064;19;20038;-78
2022/09/06 10:19:45;;;;;;;2.20;0.45;;;;;;;20.41;100.00;99359.53;7390926;19;20022;-80
2022/09/06 10:22:31;;;;;;;2.15;0.65;;;;;;;20.48;100.00;99352.41;7393331;19;20038;-79
2022/09/06 10:25:31;;;;;;;2.20;0.75;;;;;;;20.27;100.00;99360.97;7393858;19;20010;-87
2022/09/06 10:28:22;;;;;;;54.53;15.50;;;;;;;20.30;100.00;99359.84;7389294;19;20014;-81
2022/09/06 10:31:07;;;;;;;7.25;2.72;;;;;;;20.27;100.00;99358.88;7388957;19;20347;-81
2022/09/06 10:34:07;;;;;;;3.55;1.02;;;;;;;20.40;100.00;99358.00;7391487;19;21077;-80
2022/09/06 10:36:37;;;;;;;3.23;1.13;;;;;;;20.39;100.00;99356.50;7395463;19;20018;-86
2022/09/06 10:39:23;;;;;;;5.20;2.17;;;;;;;20.48;100.00;99353.19;7397006;19;20298;-82
2022/09/06 10:42:06;;;;;;;3.88;0.77;;;;;;;20.61;100.00;99361.56;7393617;19;20030;-83
2022/09/06 10:44:35;;;;;;;8.93;2.15;;;;;;;20.66;100.00;99352.16;7391754;19;20361;-79
2022/09/06 10:47:12;;;;;;;9.35;1.42;;;;;;;20.56;100.00;99359.63;7392545;19;20019;-80
2022/09/06 10:49:43;;;;;;;7.55;2.20;;;;;;;20.49;100.00;99356.78;7393508;19;20060;-82
2022/09/06 10:52:13;;;;;;;6.05;2.33;;;;;;;20.55;100.00;99355.31;7397562;19;20456;-88
2022/09/06 10:54:40;;;;;;;2.55;0.88;;;;;;;20.63;100.00;99355.34;7396975;19;20337;-83
2022/09/06 10:57:28;;;;;;;3.40;1.15;;;;;;;20.75;100.00;99354.47;7390461;19;20575;-82
2022/09/06 11:00:01;;;;;;;11.60;3.60;;;;;;;20.86;100.00;99365.47;7394329;19;20031;-87
2022/09/06 11:02:58;;;;;;;7.28;1.10;;;;;;;20.76;100.00;99353.16;7390439;19;20662;-81
2022/09/06 11:05:29;;;;;;;3.00;0.50;;;;;;;20.57;100.00;99349.84;7392181;19;20026;-84
2022/09/06 11:08:00;;;;;;;1.98;1.02;;;;;;;20.72;100.00;99344.28;7398370;19;20034;-88
2022/09/06 11:10:33;;;;;;;4.88;0.82;;;;;;;20.67;100.00;99341.59;7393276;19;20018;-86
2022/09/06 11:12:59;;;;;;;0.35;0.30;;;;;;;20.60;100.00;99334.56;7400599;19;20054;-91
2022/09/06 11:15:32;;;;;;;2.97;1.15;;;;;;;20.47;100.00;99331.09;7398461;19;20126;-87
2022/09/06 11:18:08;;;;;;;2.95;1.02;;;;;;;20.43;100.00;99328.63;7398624;19;20014;-88
2022/09/06 11:20:41;;;;;;;2.83;1.05;;;;;;;20.28;100.00;99334.19;7398181;19;20078;-90
2022/09/06 11:23:13;;;;;;;3.95;0.73;;;;;;;20.08;100.00;99334.94;7396674;19;20037;-90
2022/09/06 11:26:17;;;;;;;1.50;0.75;;;;;;;20.19;100.00;99320.50;7397588;19;20006;-93
2022/09/06 11:28:56;;;;;;;3.10;0.60;;;;;;;20.18;100.00;99319.75;7400596;19;20007;-84
2022/09/06 11:31:27;;;;;;;2.92;0.47;;;;;;;20.24;100.00;99316.81;7398411;19;20394;-92
2022/09/06 11:34:09;;;;;;;1.92;0.88;;;;;;;20.32;100.00;99323.28;7391879;19;20022;-81
2022/09/06 11:36:44;;;;;;;4.35;0.63;;;;;;;20.32;100.00;99321.22;7388914;19;20031;-82
2022/09/06 11:39:10;;;;;;;1.77;1.13;;;;;;;20.37;100.00;99316.72;7390491;19;20011;-85
2022/09/06 11:41:41;;;;;;;2.08;0.73;;;;;;;20.40;100.00;99313.53;7393793;19;20019;-82